sensor_id;sensor_type;location;lat;lon;timestamp;P1;durP1;ratioP1;P2;durP2;ratioP2
13855;SDS011;6998;53.608;9.958;2022-12-18T00:01:21;22.53;;;14.63;;
13855;SDS011;6998;53.608;9.958;2022-12-18T00:03:51;21.90;;;13.80;;
13855;SDS011;6998;53.608;9.958;2022-12-18T00:06:22;21.60;;;14.27;;
13855;SDS011;6998;53.608;9.958;2022-12-18T00:08:50;22.13;;;13.67;;
13855;SDS011;6998;53.608;9.958;2022-12-18T00:11:23;21.13;;;13.50;;
13855;SDS011;6998;53.608;9.958;2022-12-18T00:13:55;20.13;;;13.90;;
13855;SDS011;6998;53.608;9.958;2022-12-18T00:16:24;20.60;;;13.23;;
13855;SDS011;6998;53.608;9.958;2022-12-18T00:18:57;19.37;;;13.03;;
13855;SDS011;6998;53.608;9.958;2022-12-18T00:21:26;20.50;;;13.33;;
13855;SDS011;6998;53.608;9.958;2022-12-18T00:23:54;21.37;;;13.50;;
13855;SDS011;6998;53.608;9.958;2022-12-18T00:26:25;18.80;;;13.37;;
13855;SDS011;6998;53.608;9.958;2022-12-18T00:28:54;18.73;;;12.77;;
13855;SDS011;6998;53.608;9.958;2022-12-18T00:31:24;19.13;;;12.80;;
13855;SDS011;6998;53.608;9.958;2022-12-18T00:33:51;21.83;;;13.80;;
13855;SDS011;6998;53.608;9.958;2022-12-18T00:36:22;21.87;;;13.50;;
13855;SDS011;6998;53.608;9.958;2022-12-18T00:38:50;19.07;;;13.00;;
13855;SDS011;6998;53.608;9.958;2022-12-18T00:41:18;18.37;;;13.20;;
13855;SDS011;6998;53.608;9.958;2022-12-18T00:43:59;19.87;;;12.83;;
13855;SDS011;6998;53.608;9.958;2022-12-18T00:46:27;21.20;;;13.37;;
13855;SDS011;6998;53.608;9.958;2022-12-18T00:48:55;17.97;;;12.40;;
13855;SDS011;6998;53.608;9.958;2022-12-18T00:51:22;22.90;;;13.50;;
13855;SDS011;6998;53.608;9.958;2022-12-18T00:53:49;19.83;;;13.30;;
13855;SDS011;6998;53.608;9.958;2022-12-18T00:56:18;17.20;;;12.43;;
13855;SDS011;6998;53.608;9.958;2022-12-18T00:58:45;19.23;;;12.57;;
13855;SDS011;6998;53.608;9.958;2022-12-18T01:01:11;23.03;;;12.70;;
13855;SDS011;6998;53.608;9.958;2022-12-18T01:03:39;20.23;;;13.63;;
13855;SDS011;6998;53.608;9.958;2022-12-18T01:06:10;19.93;;;12.83;;
13855;SDS011;6998;53.608;9.958;2022-12-18T01:08:38;21.67;;;12.97;;
13855;SDS011;6998;53.608;9.958;2022-12-18T01:11:06;23.07;;;13.30;;
13855;SDS011;6998;53.608;9.958;2022-12-18T01:13:35;21.10;;;13.00;;
13855;SDS011;6998;53.608;9.958;2022-12-18T01:16:02;18.43;;;13.13;;
13855;SDS011;6998;53.608;9.958;2022-12-18T01:18:29;17.40;;;12.60;;
13855;SDS011;6998;53.608;9.958;2022-12-18T01:20:56;18.97;;;13.37;;
13855;SDS011;6998;53.608;9.958;2022-12-18T01:23:25;20.77;;;13.07;;
13855;SDS011;6998;53.608;9.958;2022-12-18T01:25:53;22.30;;;13.53;;
13855;SDS011;6998;53.608;9.958;2022-12-18T01:28:21;23.10;;;12.97;;
13855;SDS011;6998;53.608;9.958;2022-12-18T01:30:48;20.03;;;12.90;;
13855;SDS011;6998;53.608;9.958;2022-12-18T01:33:14;19.93;;;12.90;;
13855;SDS011;6998;53.608;9.958;2022-12-18T01:35:41;19.47;;;13.00;;
13855;SDS011;6998;53.608;9.958;2022-12-18T01:38:10;16.03;;;12.00;;
13855;SDS011;6998;53.608;9.958;2022-12-18T01:40:38;21.60;;;12.90;;
13855;SDS011;6998;53.608;9.958;2022-12-18T01:43:05;16.67;;;11.80;;
13855;SDS011;6998;53.608;9.958;2022-12-18T01:45:35;18.50;;;12.57;;
13855;SDS011;6998;53.608;9.958;2022-12-18T01:48:02;20.10;;;12.63;;
13855;SDS011;6998;53.608;9.958;2022-12-18T01:50:31;19.53;;;12.03;;
13855;SDS011;6998;53.608;9.958;2022-12-18T01:53:02;18.20;;;12.40;;
13855;SDS011;6998;53.608;9.958;2022-12-18T01:55:36;18.23;;;11.80;;
13855;SDS011;6998;53.608;9.958;2022-12-18T01:58:15;17.23;;;11.50;;
13855;SDS011;6998;53.608;9.958;2022-12-18T02:00:44;17.53;;;11.87;;
13855;SDS011;6998;53.608;9.958;2022-12-18T02:03:11;21.53;;;13.00;;
13855;SDS011;6998;53.608;9.958;2022-12-18T02:05:40;19.67;;;13.13;;
13855;SDS011;6998;53.608;9.958;2022-12-18T02:08:12;17.00;;;11.73;;
13855;SDS011;6998;53.608;9.958;2022-12-18T02:10:51;16.60;;;11.47;;
13855;SDS011;6998;53.608;9.958;2022-12-18T02:13:28;17.90;;;11.50;;
13855;SDS011;6998;53.608;9.958;2022-12-18T02:16:03;15.30;;;11.33;;
13855;SDS011;6998;53.608;9.958;2022-12-18T02:18:36;17.27;;;12.57;;
13855;SDS011;6998;53.608;9.958;2022-12-18T02:21:08;17.23;;;12.00;;
13855;SDS011;6998;53.608;9.958;2022-12-18T02:23:47;17.20;;;11.90;;
13855;SDS011;6998;53.608;9.958;2022-12-18T02:26:26;17.93;;;11.70;;
13855;SDS011;6998;53.608;9.958;2022-12-18T02:28:56;18.30;;;12.33;;
13855;SDS011;6998;53.608;9.958;2022-12-18T02:31:30;17.63;;;12.03;;
13855;SDS011;6998;53.608;9.958;2022-12-18T02:34:02;16.37;;;11.07;;
13855;SDS011;6998;53.608;9.958;2022-12-18T02:36:32;17.07;;;10.87;;
13855;SDS011;6998;53.608;9.958;2022-12-18T02:39:03;18.37;;;12.20;;
13855;SDS011;6998;53.608;9.958;2022-12-18T02:41:35;19.30;;;11.47;;
13855;SDS011;6998;53.608;9.958;2022-12-18T02:44:07;17.77;;;11.77;;
13855;SDS011;6998;53.608;9.958;2022-12-18T02:46:37;17.90;;;11.20;;
13855;SDS011;6998;53.608;9.958;2022-12-18T02:49:10;16.40;;;11.33;;
13855;SDS011;6998;53.608;9.958;2022-12-18T02:51:50;21.17;;;12.27;;
13855;SDS011;6998;53.608;9.958;2022-12-18T02:54:23;18.27;;;12.07;;
13855;SDS011;6998;53.608;9.958;2022-12-18T02:57:03;17.33;;;11.17;;
13855;SDS011;6998;53.608;9.958;2022-12-18T02:59:46;18.20;;;11.43;;
13855;SDS011;6998;53.608;9.958;2022-12-18T03:02:21;18.10;;;11.87;;
13855;SDS011;6998;53.608;9.958;2022-12-18T03:04:53;16.47;;;11.57;;
13855;SDS011;6998;53.608;9.958;2022-12-18T03:07:26;18.40;;;11.90;;
13855;SDS011;6998;53.608;9.958;2022-12-18T03:09:59;15.07;;;11.13;;
13855;SDS011;6998;53.608;9.958;2022-12-18T03:12:30;18.37;;;11.07;;
13855;SDS011;6998;53.608;9.958;2022-12-18T03:14:59;16.20;;;11.23;;
13855;SDS011;6998;53.608;9.958;2022-12-18T03:17:30;17.53;;;10.83;;
13855;SDS011;6998;53.608;9.958;2022-12-18T03:20:02;18.67;;;11.97;;
13855;SDS011;6998;53.608;9.958;2022-12-18T03:22:32;17.10;;;11.20;;
13855;SDS011;6998;53.608;9.958;2022-12-18T03:25:02;17.03;;;11.00;;
13855;SDS011;6998;53.608;9.958;2022-12-18T03:27:35;16.87;;;10.93;;
13855;SDS011;6998;53.608;9.958;2022-12-18T03:30:08;16.47;;;11.83;;
13855;SDS011;6998;53.608;9.958;2022-12-18T03:32:38;16.77;;;11.23;;
13855;SDS011;6998;53.608;9.958;2022-12-18T03:35:08;17.43;;;11.07;;
13855;SDS011;6998;53.608;9.958;2022-12-18T03:37:38;15.07;;;11.10;;
13855;SDS011;6998;53.608;9.958;2022-12-18T03:40:06;14.97;;;10.40;;
13855;SDS011;6998;53.608;9.958;2022-12-18T03:42:37;17.40;;;11.37;;
13855;SDS011;6998;53.608;9.958;2022-12-18T03:45:13;16.67;;;11.00;;
13855;SDS011;6998;53.608;9.958;2022-12-18T03:47:49;15.03;;;10.73;;
13855;SDS011;6998;53.608;9.958;2022-12-18T03:50:25;18.47;;;10.60;;
13855;SDS011;6998;53.608;9.958;2022-12-18T03:53:02;15.17;;;11.17;;
13855;SDS011;6998;53.608;9.958;2022-12-18T03:55:35;15.17;;;10.43;;
13855;SDS011;6998;53.608;9.958;2022-12-18T03:58:04;14.57;;;10.40;;
13855;SDS011;6998;53.608;9.958;2022-12-18T04:00:33;20.20;;;11.43;;
13855;SDS011;6998;53.608;9.958;2022-12-18T04:03:01;18.80;;;11.30;;
13855;SDS011;6998;53.608;9.958;2022-12-18T04:05:30;16.30;;;10.50;;
13855;SDS011;6998;53.608;9.958;2022-12-18T04:07:59;17.93;;;11.57;;
13855;SDS011;6998;53.608;9.958;2022-12-18T04:10:27;16.93;;;11.00;;
13855;SDS011;6998;53.608;9.958;2022-12-18T04:12:55;18.60;;;11.67;;
13855;SDS011;6998;53.608;9.958;2022-12-18T04:15:25;18.90;;;12.47;;
13855;SDS011;6998;53.608;9.958;2022-12-18T04:17:52;17.10;;;11.50;;
13855;SDS011;6998;53.608;9.958;2022-12-18T04:20:18;18.70;;;11.77;;
13855;SDS011;6998;53.608;9.958;2022-12-18T04:22:45;18.83;;;11.87;;
13855;SDS011;6998;53.608;9.958;2022-12-18T04:25:12;19.50;;;11.83;;
13855;SDS011;6998;53.608;9.958;2022-12-18T04:27:39;17.27;;;11.07;;
13855;SDS011;6998;53.608;9.958;2022-12-18T04:30:06;20.00;;;11.97;;
13855;SDS011;6998;53.608;9.958;2022-12-18T04:32:35;17.53;;;11.57;;
13855;SDS011;6998;53.608;9.958;2022-12-18T04:35:02;16.50;;;10.83;;
13855;SDS011;6998;53.608;9.958;2022-12-18T04:37:36;18.40;;;11.43;;
13855;SDS011;6998;53.608;9.958;2022-12-18T04:40:04;19.67;;;11.20;;
13855;SDS011;6998;53.608;9.958;2022-12-18T04:42:31;16.40;;;11.40;;
13855;SDS011;6998;53.608;9.958;2022-12-18T04:44:58;16.07;;;10.70;;
13855;SDS011;6998;53.608;9.958;2022-12-18T04:47:25;20.13;;;11.67;;
13855;SDS011;6998;53.608;9.958;2022-12-18T04:49:54;18.97;;;11.00;;
13855;SDS011;6998;53.608;9.958;2022-12-18T04:52:21;19.20;;;10.83;;
13855;SDS011;6998;53.608;9.958;2022-12-18T04:54:49;16.97;;;10.77;;
13855;SDS011;6998;53.608;9.958;2022-12-18T04:57:16;17.93;;;11.83;;
13855;SDS011;6998;53.608;9.958;2022-12-18T04:59:43;17.37;;;11.93;;
13855;SDS011;6998;53.608;9.958;2022-12-18T05:02:10;15.93;;;10.83;;
13855;SDS011;6998;53.608;9.958;2022-12-18T05:04:37;14.50;;;10.07;;
13855;SDS011;6998;53.608;9.958;2022-12-18T05:07:05;15.53;;;10.53;;
13855;SDS011;6998;53.608;9.958;2022-12-18T05:09:32;17.03;;;11.33;;
13855;SDS011;6998;53.608;9.958;2022-12-18T05:11:59;16.70;;;10.70;;
13855;SDS011;6998;53.608;9.958;2022-12-18T05:14:26;17.27;;;10.80;;
13855;SDS011;6998;53.608;9.958;2022-12-18T05:16:54;19.33;;;11.27;;
13855;SDS011;6998;53.608;9.958;2022-12-18T05:19:22;18.17;;;11.53;;
13855;SDS011;6998;53.608;9.958;2022-12-18T05:21:49;18.47;;;12.03;;
13855;SDS011;6998;53.608;9.958;2022-12-18T05:24:18;18.77;;;10.93;;
13855;SDS011;6998;53.608;9.958;2022-12-18T05:26:44;18.47;;;11.53;;
13855;SDS011;6998;53.608;9.958;2022-12-18T05:29:12;18.23;;;11.23;;
13855;SDS011;6998;53.608;9.958;2022-12-18T05:31:39;15.07;;;10.23;;
13855;SDS011;6998;53.608;9.958;2022-12-18T05:34:06;19.33;;;11.37;;
13855;SDS011;6998;53.608;9.958;2022-12-18T05:36:33;18.77;;;11.20;;
13855;SDS011;6998;53.608;9.958;2022-12-18T05:39:00;16.70;;;10.63;;
13855;SDS011;6998;53.608;9.958;2022-12-18T05:41:29;17.07;;;11.00;;
13855;SDS011;6998;53.608;9.958;2022-12-18T05:43:56;19.67;;;11.63;;
13855;SDS011;6998;53.608;9.958;2022-12-18T05:46:24;15.10;;;10.13;;
13855;SDS011;6998;53.608;9.958;2022-12-18T05:48:52;16.37;;;11.00;;
13855;SDS011;6998;53.608;9.958;2022-12-18T05:51:20;15.17;;;10.87;;
13855;SDS011;6998;53.608;9.958;2022-12-18T05:53:48;16.90;;;10.53;;
13855;SDS011;6998;53.608;9.958;2022-12-18T05:56:15;16.17;;;10.23;;
13855;SDS011;6998;53.608;9.958;2022-12-18T05:58:45;17.50;;;10.07;;
13855;SDS011;6998;53.608;9.958;2022-12-18T06:01:14;16.67;;;10.30;;
13855;SDS011;6998;53.608;9.958;2022-12-18T06:03:42;15.90;;;10.63;;
13855;SDS011;6998;53.608;9.958;2022-12-18T06:06:12;14.57;;;10.30;;
13855;SDS011;6998;53.608;9.958;2022-12-18T06:08:40;16.73;;;11.50;;
13855;SDS011;6998;53.608;9.958;2022-12-18T06:11:09;14.43;;;11.17;;
13855;SDS011;6998;53.608;9.958;2022-12-18T06:13:37;17.20;;;12.10;;
13855;SDS011;6998;53.608;9.958;2022-12-18T06:16:07;20.77;;;12.77;;
13855;SDS011;6998;53.608;9.958;2022-12-18T06:18:33;18.27;;;13.27;;
13855;SDS011;6998;53.608;9.958;2022-12-18T06:21:00;16.20;;;12.33;;
13855;SDS011;6998;53.608;9.958;2022-12-18T06:23:27;17.60;;;12.13;;
13855;SDS011;6998;53.608;9.958;2022-12-18T06:25:54;18.80;;;11.33;;
13855;SDS011;6998;53.608;9.958;2022-12-18T06:28:21;17.33;;;11.73;;
13855;SDS011;6998;53.608;9.958;2022-12-18T06:30:48;17.63;;;11.37;;
13855;SDS011;6998;53.608;9.958;2022-12-18T06:33:17;19.17;;;11.20;;
13855;SDS011;6998;53.608;9.958;2022-12-18T06:35:45;18.40;;;10.83;;
13855;SDS011;6998;53.608;9.958;2022-12-18T06:38:12;17.07;;;11.63;;
13855;SDS011;6998;53.608;9.958;2022-12-18T06:40:39;16.60;;;10.77;;
13855;SDS011;6998;53.608;9.958;2022-12-18T06:43:06;16.23;;;10.27;;
13855;SDS011;6998;53.608;9.958;2022-12-18T06:45:32;15.73;;;10.43;;
13855;SDS011;6998;53.608;9.958;2022-12-18T06:48:00;17.07;;;11.30;;
13855;SDS011;6998;53.608;9.958;2022-12-18T06:50:28;15.80;;;10.37;;
13855;SDS011;6998;53.608;9.958;2022-12-18T06:52:55;15.37;;;10.23;;
13855;SDS011;6998;53.608;9.958;2022-12-18T06:55:23;14.87;;;10.87;;
13855;SDS011;6998;53.608;9.958;2022-12-18T06:57:51;16.63;;;11.20;;
13855;SDS011;6998;53.608;9.958;2022-12-18T07:00:19;17.10;;;11.53;;
13855;SDS011;6998;53.608;9.958;2022-12-18T07:02:47;19.13;;;10.97;;
13855;SDS011;6998;53.608;9.958;2022-12-18T07:05:14;17.90;;;10.97;;
13855;SDS011;6998;53.608;9.958;2022-12-18T07:07:43;17.23;;;10.93;;
13855;SDS011;6998;53.608;9.958;2022-12-18T07:10:10;16.17;;;9.93;;
13855;SDS011;6998;53.608;9.958;2022-12-18T07:12:37;18.67;;;10.53;;
13855;SDS011;6998;53.608;9.958;2022-12-18T07:15:05;16.20;;;10.17;;
13855;SDS011;6998;53.608;9.958;2022-12-18T07:17:33;16.23;;;10.67;;
13855;SDS011;6998;53.608;9.958;2022-12-18T07:19:59;15.67;;;10.43;;
13855;SDS011;6998;53.608;9.958;2022-12-18T07:22:27;14.00;;;10.40;;
13855;SDS011;6998;53.608;9.958;2022-12-18T07:24:55;17.97;;;11.40;;
13855;SDS011;6998;53.608;9.958;2022-12-18T07:27:21;16.63;;;11.13;;
13855;SDS011;6998;53.608;9.958;2022-12-18T07:29:48;25.40;;;17.13;;
13855;SDS011;6998;53.608;9.958;2022-12-18T07:32:15;24.63;;;15.13;;
13855;SDS011;6998;53.608;9.958;2022-12-18T07:34:42;26.80;;;14.67;;
13855;SDS011;6998;53.608;9.958;2022-12-18T07:37:09;22.70;;;13.57;;
13855;SDS011;6998;53.608;9.958;2022-12-18T07:39:35;19.83;;;12.47;;
13855;SDS011;6998;53.608;9.958;2022-12-18T07:42:07;20.33;;;12.47;;
13855;SDS011;6998;53.608;9.958;2022-12-18T07:44:51;20.23;;;12.10;;
13855;SDS011;6998;53.608;9.958;2022-12-18T07:47:18;23.23;;;12.80;;
13855;SDS011;6998;53.608;9.958;2022-12-18T07:49:44;22.07;;;12.60;;
13855;SDS011;6998;53.608;9.958;2022-12-18T07:52:11;20.23;;;13.93;;
13855;SDS011;6998;53.608;9.958;2022-12-18T07:54:38;19.30;;;13.57;;
13855;SDS011;6998;53.608;9.958;2022-12-18T07:57:07;20.70;;;13.03;;
13855;SDS011;6998;53.608;9.958;2022-12-18T07:59:36;19.57;;;11.93;;
13855;SDS011;6998;53.608;9.958;2022-12-18T08:02:03;17.13;;;12.40;;
13855;SDS011;6998;53.608;9.958;2022-12-18T08:04:29;16.53;;;11.63;;
13855;SDS011;6998;53.608;9.958;2022-12-18T08:06:56;17.97;;;11.70;;
13855;SDS011;6998;53.608;9.958;2022-12-18T08:09:23;19.47;;;11.70;;
13855;SDS011;6998;53.608;9.958;2022-12-18T08:11:50;18.63;;;12.30;;
13855;SDS011;6998;53.608;9.958;2022-12-18T08:14:18;30.43;;;17.40;;
13855;SDS011;6998;53.608;9.958;2022-12-18T08:16:45;19.77;;;14.40;;
13855;SDS011;6998;53.608;9.958;2022-12-18T08:19:12;21.37;;;13.13;;
13855;SDS011;6998;53.608;9.958;2022-12-18T08:21:38;22.07;;;12.67;;
13855;SDS011;6998;53.608;9.958;2022-12-18T08:24:05;17.40;;;12.03;;
13855;SDS011;6998;53.608;9.958;2022-12-18T08:26:33;16.67;;;12.13;;
13855;SDS011;6998;53.608;9.958;2022-12-18T08:29:00;19.00;;;12.40;;
13855;SDS011;6998;53.608;9.958;2022-12-18T08:31:28;20.93;;;13.57;;
13855;SDS011;6998;53.608;9.958;2022-12-18T08:33:56;24.90;;;16.77;;
13855;SDS011;6998;53.608;9.958;2022-12-18T08:36:24;28.63;;;17.83;;
13855;SDS011;6998;53.608;9.958;2022-12-18T08:38:51;26.97;;;16.20;;
13855;SDS011;6998;53.608;9.958;2022-12-18T08:41:18;23.40;;;15.50;;
13855;SDS011;6998;53.608;9.958;2022-12-18T08:43:45;21.73;;;14.40;;
13855;SDS011;6998;53.608;9.958;2022-12-18T08:46:33;22.97;;;14.53;;
13855;SDS011;6998;53.608;9.958;2022-12-18T08:49:02;25.60;;;15.43;;
13855;SDS011;6998;53.608;9.958;2022-12-18T08:51:32;23.67;;;15.57;;
13855;SDS011;6998;53.608;9.958;2022-12-18T08:54:02;23.57;;;15.80;;
13855;SDS011;6998;53.608;9.958;2022-12-18T08:56:32;22.30;;;16.03;;
13855;SDS011;6998;53.608;9.958;2022-12-18T08:58:59;28.37;;;16.30;;
13855;SDS011;6998;53.608;9.958;2022-12-18T09:01:27;21.17;;;14.47;;
13855;SDS011;6998;53.608;9.958;2022-12-18T09:03:55;24.53;;;15.23;;
13855;SDS011;6998;53.608;9.958;2022-12-18T09:06:23;20.13;;;12.97;;
13855;SDS011;6998;53.608;9.958;2022-12-18T09:08:52;22.73;;;14.03;;
13855;SDS011;6998;53.608;9.958;2022-12-18T09:11:21;20.63;;;13.77;;
13855;SDS011;6998;53.608;9.958;2022-12-18T09:13:49;19.20;;;12.63;;
13855;SDS011;6998;53.608;9.958;2022-12-18T09:16:17;20.43;;;13.10;;
13855;SDS011;6998;53.608;9.958;2022-12-18T09:18:45;21.57;;;13.13;;
13855;SDS011;6998;53.608;9.958;2022-12-18T09:21:14;21.67;;;13.93;;
13855;SDS011;6998;53.608;9.958;2022-12-18T09:23:43;20.17;;;13.63;;
13855;SDS011;6998;53.608;9.958;2022-12-18T09:26:15;19.87;;;13.97;;
13855;SDS011;6998;53.608;9.958;2022-12-18T09:28:44;20.57;;;13.87;;
13855;SDS011;6998;53.608;9.958;2022-12-18T09:31:12;22.17;;;13.23;;
13855;SDS011;6998;53.608;9.958;2022-12-18T09:33:40;21.20;;;13.83;;
13855;SDS011;6998;53.608;9.958;2022-12-18T09:36:08;21.67;;;14.07;;
13855;SDS011;6998;53.608;9.958;2022-12-18T09:38:39;21.30;;;13.70;;
13855;SDS011;6998;53.608;9.958;2022-12-18T09:41:13;19.90;;;12.37;;
13855;SDS011;6998;53.608;9.958;2022-12-18T09:44:00;20.13;;;13.67;;
13855;SDS011;6998;53.608;9.958;2022-12-18T09:46:31;20.00;;;13.70;;
13855;SDS011;6998;53.608;9.958;2022-12-18T09:49:02;20.70;;;14.33;;
13855;SDS011;6998;53.608;9.958;2022-12-18T09:51:37;20.90;;;13.93;;
13855;SDS011;6998;53.608;9.958;2022-12-18T09:54:12;20.43;;;13.57;;
13855;SDS011;6998;53.608;9.958;2022-12-18T09:56:44;23.00;;;14.60;;
13855;SDS011;6998;53.608;9.958;2022-12-18T09:59:18;19.00;;;13.40;;
13855;SDS011;6998;53.608;9.958;2022-12-18T10:01:49;22.27;;;13.63;;
13855;SDS011;6998;53.608;9.958;2022-12-18T10:04:16;20.17;;;14.60;;
13855;SDS011;6998;53.608;9.958;2022-12-18T10:06:44;20.47;;;14.17;;
13855;SDS011;6998;53.608;9.958;2022-12-18T10:09:21;19.07;;;13.20;;
13855;SDS011;6998;53.608;9.958;2022-12-18T10:11:55;24.17;;;14.50;;
13855;SDS011;6998;53.608;9.958;2022-12-18T10:14:30;23.40;;;14.30;;
13855;SDS011;6998;53.608;9.958;2022-12-18T10:17:03;19.33;;;13.40;;
13855;SDS011;6998;53.608;9.958;2022-12-18T10:19:43;19.73;;;13.93;;
13855;SDS011;6998;53.608;9.958;2022-12-18T10:22:31;22.40;;;15.13;;
13855;SDS011;6998;53.608;9.958;2022-12-18T10:28:25;19.47;;;12.73;;
13855;SDS011;6998;53.608;9.958;2022-12-18T10:30:59;17.40;;;12.63;;
13855;SDS011;6998;53.608;9.958;2022-12-18T10:33:28;17.73;;;12.50;;
13855;SDS011;6998;53.608;9.958;2022-12-18T10:35:59;19.10;;;11.87;;
13855;SDS011;6998;53.608;9.958;2022-12-18T10:38:32;17.87;;;12.47;;
13855;SDS011;6998;53.608;9.958;2022-12-18T10:41:26;19.17;;;12.10;;
13855;SDS011;6998;53.608;9.958;2022-12-18T10:46:43;18.33;;;11.53;;
13855;SDS011;6998;53.608;9.958;2022-12-18T10:49:22;17.27;;;11.17;;
13855;SDS011;6998;53.608;9.958;2022-12-18T10:52:04;17.20;;;11.60;;
13855;SDS011;6998;53.608;9.958;2022-12-18T10:54:46;19.47;;;12.63;;
13855;SDS011;6998;53.608;9.958;2022-12-18T11:07:15;18.90;;;13.33;;
13855;SDS011;6998;53.608;9.958;2022-12-18T11:12:48;20.97;;;14.97;;
13855;SDS011;6998;53.608;9.958;2022-12-18T11:25:17;30.47;;;20.07;;
13855;SDS011;6998;53.608;9.958;2022-12-18T11:27:47;29.57;;;19.00;;
13855;SDS011;6998;53.608;9.958;2022-12-18T11:35:43;28.37;;;21.00;;
13855;SDS011;6998;53.608;9.958;2022-12-18T11:38:21;22.93;;;14.83;;
13855;SDS011;6998;53.608;9.958;2022-12-18T11:40:51;19.53;;;14.50;;
13855;SDS011;6998;53.608;9.958;2022-12-18T11:43:26;18.70;;;14.30;;
13855;SDS011;6998;53.608;9.958;2022-12-18T11:45:56;26.63;;;20.20;;
13855;SDS011;6998;53.608;9.958;2022-12-18T11:48:28;23.00;;;15.83;;
13855;SDS011;6998;53.608;9.958;2022-12-18T11:50:59;21.00;;;14.70;;
13855;SDS011;6998;53.608;9.958;2022-12-18T11:53:31;33.97;;;24.60;;
13855;SDS011;6998;53.608;9.958;2022-12-18T11:56:03;65.17;;;43.27;;
13855;SDS011;6998;53.608;9.958;2022-12-18T11:58:39;65.73;;;42.43;;
13855;SDS011;6998;53.608;9.958;2022-12-18T12:01:13;62.87;;;38.30;;
13855;SDS011;6998;53.608;9.958;2022-12-18T12:06:52;29.03;;;19.37;;
13855;SDS011;6998;53.608;9.958;2022-12-18T12:09:28;37.83;;;24.43;;
13855;SDS011;6998;53.608;9.958;2022-12-18T12:12:02;62.67;;;38.60;;
13855;SDS011;6998;53.608;9.958;2022-12-18T12:14:47;64.80;;;47.47;;
13855;SDS011;6998;53.608;9.958;2022-12-18T12:17:24;68.40;;;44.57;;
13855;SDS011;6998;53.608;9.958;2022-12-18T12:20:02;32.37;;;20.87;;
13855;SDS011;6998;53.608;9.958;2022-12-18T12:22:36;78.97;;;53.27;;
13855;SDS011;6998;53.608;9.958;2022-12-18T12:25:16;76.27;;;52.47;;
13855;SDS011;6998;53.608;9.958;2022-12-18T12:27:55;34.47;;;25.03;;
13855;SDS011;6998;53.608;9.958;2022-12-18T12:30:30;25.10;;;17.40;;
13855;SDS011;6998;53.608;9.958;2022-12-18T12:33:10;30.27;;;21.07;;
13855;SDS011;6998;53.608;9.958;2022-12-18T12:35:51;23.87;;;16.20;;
13855;SDS011;6998;53.608;9.958;2022-12-18T12:38:25;42.13;;;26.10;;
13855;SDS011;6998;53.608;9.958;2022-12-18T14:31:16;31.07;;;17.80;;
13855;SDS011;6998;53.608;9.958;2022-12-18T14:33:44;29.00;;;17.00;;
13855;SDS011;6998;53.608;9.958;2022-12-18T15:16:17;32.87;;;19.33;;
13855;SDS011;6998;53.608;9.958;2022-12-18T23:35:13;29.27;;;19.90;;
13855;SDS011;6998;53.608;9.958;2022-12-18T23:41:14;29.97;;;17.67;;
13855;SDS011;6998;53.608;9.958;2022-12-18T23:43:56;28.23;;;18.27;;
13855;SDS011;6998;53.608;9.958;2022-12-18T23:46:27;29.33;;;17.17;;
13855;SDS011;6998;53.608;9.958;2022-12-18T23:49:03;27.13;;;17.57;;
13855;SDS011;6998;53.608;9.958;2022-12-18T23:54:28;28.87;;;17.77;;
13855;SDS011;6998;53.608;9.958;2022-12-18T23:56:57;29.43;;;17.80;;
13855;SDS011;6998;53.608;9.958;2022-12-18T23:59:28;26.83;;;17.47;;
